createdAt,value
2023-08-14T03:47:30.431Z,100.00
2023-08-14T03:50:33.873Z,100.00
2023-08-14T03:53:36.738Z,100.00
2023-08-14T03:56:40.360Z,100.00
2023-08-14T03:59:43.501Z,100.00
2023-08-14T04:02:47.154Z,100.00
2023-08-14T04:05:56.535Z,100.00
2023-08-14T04:09:02.460Z,100.00
2023-08-14T04:12:05.703Z,100.00
2023-08-14T04:15:16.271Z,100.00
2023-08-14T04:18:19.457Z,100.00
2023-08-14T04:21:21.982Z,100.00
2023-08-14T04:24:24.769Z,100.00
2023-08-14T04:27:27.248Z,100.00
2023-08-14T04:30:30.034Z,100.00
2023-08-14T04:33:32.622Z,100.00
2023-08-14T04:36:36.786Z,100.00
2023-08-14T04:39:39.665Z,100.00
2023-08-14T04:42:42.285Z,100.00
2023-08-14T04:45:44.842Z,100.00
2023-08-14T04:48:47.544Z,100.00
2023-08-14T04:51:50.083Z,100.00
2023-08-14T04:54:53.943Z,100.00
2023-08-14T04:57:57.264Z,100.00
2023-08-14T05:01:00.074Z,100.00
2023-08-14T05:04:03.260Z,100.00
2023-08-14T05:07:05.994Z,100.00
2023-08-14T05:10:08.545Z,100.00
2023-08-14T05:13:11.345Z,100.00
2023-08-14T05:16:14.280Z,100.00
2023-08-14T05:19:17.983Z,100.00
2023-08-14T05:22:23.337Z,100.00
2023-08-14T05:25:26.229Z,100.00
2023-08-14T05:28:28.888Z,100.00
2023-08-14T05:31:32.284Z,100.00
2023-08-14T05:34:35.140Z,100.00
2023-08-14T05:37:37.830Z,100.00
2023-08-14T05:40:40.363Z,100.00
2023-08-14T05:43:43.214Z,100.00
2023-08-14T05:46:48.235Z,100.00
2023-08-14T05:49:52.439Z,100.00
2023-08-14T05:53:01.064Z,100.00
2023-08-14T05:56:07.357Z,100.00
2023-08-14T05:59:10.195Z,100.00
2023-08-14T06:02:13.085Z,100.00
2023-08-14T06:05:16.066Z,100.00
2023-08-14T06:08:18.721Z,100.00
2023-08-14T06:11:21.783Z,100.00
2023-08-14T06:14:24.651Z,100.00
2023-08-14T06:17:31.051Z,99.99
2023-08-14T06:20:35.376Z,100.00
2023-08-14T06:23:38.593Z,100.00
2023-08-14T06:26:41.721Z,98.96
2023-08-14T06:29:45.060Z,100.00
2023-08-14T06:32:47.708Z,100.00
2023-08-14T06:35:50.594Z,99.00
2023-08-14T06:38:53.897Z,97.74
2023-08-14T06:41:57.308Z,94.29
2023-08-14T06:45:02.730Z,92.40
2023-08-14T06:48:06.597Z,89.72
2023-08-14T06:51:10.051Z,88.20
2023-08-14T06:54:13.732Z,83.33
2023-08-14T06:57:17.361Z,78.91
2023-08-14T07:00:20.108Z,76.41
2023-08-14T07:03:22.635Z,77.42
2023-08-14T07:06:25.591Z,78.47
2023-08-14T07:09:28.196Z,75.28
2023-08-14T07:12:30.965Z,73.63
2023-08-14T07:15:34.006Z,75.77
2023-08-14T07:18:37.032Z,71.40
2023-08-14T07:21:39.936Z,68.81
2023-08-14T07:24:45.256Z,67.43
2023-08-14T07:27:47.674Z,67.17
2023-08-14T07:30:50.622Z,64.50
2023-08-14T07:33:53.095Z,65.02
2023-08-14T07:36:55.718Z,60.69
2023-08-14T07:39:58.078Z,60.18
2023-08-14T07:43:00.599Z,58.28
2023-08-14T07:46:03.149Z,60.95
2023-08-14T07:49:05.910Z,62.63
2023-08-14T07:52:10.565Z,60.06
2023-08-14T07:55:13.424Z,59.27
2023-08-14T07:58:19.605Z,58.51
2023-08-14T08:01:22.611Z,58.13
2023-08-14T08:04:26.854Z,54.90
2023-08-14T08:10:37.892Z,51.47
2023-08-14T08:13:44.162Z,53.81
2023-08-14T08:16:46.903Z,53.06
2023-08-14T08:19:49.552Z,51.43
2023-08-14T08:22:52.352Z,48.23
2023-08-14T08:25:54.894Z,50.05
2023-08-14T08:28:58.776Z,49.53
2023-08-14T08:32:01.180Z,48.07
2023-08-14T08:35:03.917Z,49.50
2023-08-14T08:38:06.374Z,50.65
2023-08-14T08:41:09.797Z,49.71
2023-08-14T08:44:33.372Z,47.29
2023-08-14T08:47:39.970Z,47.39
2023-08-14T08:50:45.636Z,48.62
2023-08-14T08:53:49.261Z,46.88
2023-08-14T08:56:52.570Z,45.73
2023-08-14T08:59:58.686Z,45.85
2023-08-14T09:03:01.442Z,45.02
2023-08-14T09:06:04.438Z,45.68
2023-08-14T09:09:07.588Z,45.82
2023-08-14T09:12:10.377Z,45.23
2023-08-14T09:15:13.002Z,45.00
2023-08-14T09:18:15.647Z,42.77
2023-08-14T09:21:19.051Z,42.00
2023-08-14T09:24:21.953Z,43.88
2023-08-14T09:27:27.348Z,40.32
2023-08-14T09:30:30.154Z,40.40
2023-08-14T09:33:33.050Z,39.93
2023-08-14T09:36:35.814Z,41.73
2023-08-14T09:39:38.370Z,40.00
2023-08-14T09:42:43.070Z,38.86
2023-08-14T09:45:48.053Z,38.53
2023-08-14T09:48:50.832Z,39.75
2023-08-14T09:52:00.082Z,39.67
2023-08-14T09:55:10.685Z,39.02
2023-08-14T09:58:14.040Z,39.62
2023-08-14T10:01:19.042Z,38.90
2023-08-14T10:04:23.810Z,38.62
2023-08-14T10:07:27.372Z,38.38
2023-08-14T10:10:32.336Z,39.12
2023-08-14T10:13:44.083Z,38.01
2023-08-14T10:16:50.807Z,37.51
2023-08-14T10:19:54.686Z,37.72
2023-08-14T10:22:58.526Z,39.02
2023-08-14T10:26:01.394Z,38.72
2023-08-14T10:29:05.870Z,38.44
2023-08-14T10:32:08.826Z,38.78
2023-08-14T10:35:13.005Z,37.29
2023-08-14T10:38:18.237Z,37.49
2023-08-14T10:41:33.607Z,37.35
2023-08-14T10:44:37.013Z,36.60
2023-08-14T10:47:39.895Z,37.43
2023-08-14T10:50:42.323Z,37.20
2023-08-14T10:53:46.081Z,36.70
2023-08-14T10:56:52.921Z,35.98
2023-08-14T10:59:59.097Z,36.51
2023-08-14T11:03:09.406Z,35.74
